Time;durP1;ratioP1;P1;durP2;ratioP2;P2;SDS_P1;SDS_P2;PMS_P1;PMS_P2;Temp;Humidity;BMP_temperature;BMP_pressure;BME280_temperature;BME280_humidity;BME280_pressure;Samples;Min_cycle;Max_cycle;Signal;HPM_P1;HPM_P2
2022/09/19 00:01:23;;;;;;;;;;;10.20;99.90;;;;;;5078086;28;20299;-68
2022/09/19 00:04:10;;;;;;;;;;;10.20;99.90;;;;;;5095195;28;19923;-68
2022/09/19 00:06:37;;;;;;;;;;;10.10;99.90;;;;;;5092557;28;20034;-68
2022/09/19 00:09:03;;;;;;;;;;;10.10;99.90;;;;;;5083437;28;19919;-68
2022/09/19 00:11:28;;;;;;;;;;;10.00;99.90;;;;;;5084745;28;19923;-68
2022/09/19 00:13:56;;;;;;;;;;;10.00;99.90;;;;;;5092777;28;19915;-68
2022/09/19 00:16:29;;;;;;;;;;;9.90;99.90;;;;;;5094117;28;19915;-68
2022/09/19 00:18:56;;;;;;;;;;;9.90;99.90;;;;;;5087248;28;19923;-68
2022/09/19 00:21:29;;;;;;;;;;;9.90;99.90;;;;;;5082645;28;20598;-68
2022/09/19 00:26:39;;;;;;;;;;;9.80;99.90;;;;;;5084106;28;19927;-68
2022/09/19 00:29:05;;;;;;;;;;;9.70;99.90;;;;;;5081226;28;19916;-68
2022/09/19 00:31:30;;;;;;;;;;;9.70;99.90;;;;;;5089393;28;19924;-68
2022/09/19 00:33:56;;;;;;;;;;;9.70;99.90;;;;;;5099381;28;19993;-68
2022/09/19 00:36:22;;;;;;;;;;;9.70;99.90;;;;;;5083344;28;19924;-68
2022/09/19 00:38:47;;;;;;;;;;;9.60;99.90;;;;;;5092277;28;20000;-68
2022/09/19 00:41:17;;;;;;;;;;;9.50;99.90;;;;;;5092474;28;20373;-68
2022/09/19 00:43:45;;;;;;;;;;;9.40;99.90;;;;;;5097022;28;20599;-68
2022/09/19 00:46:11;;;;;;;;;;;9.30;99.90;;;;;;5081507;28;19916;-68
2022/09/19 00:48:41;;;;;;;;;;;9.20;99.90;;;;;;5095850;28;20509;-68
2022/09/19 00:51:09;;;;;;;;;;;9.20;99.90;;;;;;5097344;28;19924;-68
2022/09/19 00:53:36;;;;;;;;;;;9.20;99.90;;;;;;5088596;28;19926;-68
2022/09/19 00:56:02;;;;;;;;;;;9.10;99.90;;;;;;5094391;28;19956;-68
2022/09/19 00:58:32;;;;;;;;;;;9.10;99.90;;;;;;5089410;28;20065;-68
2022/09/19 01:00:59;;;;;;;;;;;9.10;99.90;;;;;;5099269;28;19911;-68
2022/09/19 01:03:26;;;;;;;;;;;9.10;99.90;;;;;;5093591;28;19919;-68
2022/09/19 01:06:15;;;;;;;;;;;9.10;99.90;;;;;;5078069;28;19985;-69
2022/09/19 01:08:52;;;;;;;;;;;9.00;99.90;;;;;;5070134;28;20366;-68
2022/09/19 01:11:26;;;;;;;;;;;8.90;99.90;;;;;;5098641;28;19927;-68
2022/09/19 01:14:02;;;;;;;;;;;8.80;99.90;;;;;;5099210;28;19959;-68
2022/09/19 01:16:34;;;;;;;;;;;8.80;99.90;;;;;;5073661;28;19916;-69
2022/09/19 01:19:08;;;;;;;;;;;8.70;99.90;;;;;;5085004;28;19984;-68
2022/09/19 01:21:38;;;;;;;;;;;8.60;99.90;;;;;;5100337;28;19918;-68
2022/09/19 01:24:19;;;;;;;;;;;8.60;99.90;;;;;;5098067;28;19920;-68
2022/09/19 01:26:44;;;;;;;;;;;8.50;99.90;;;;;;5098605;28;19958;-68
2022/09/19 01:29:14;;;;;;;;;;;8.50;99.90;;;;;;5095273;28;20003;-68
2022/09/19 01:31:42;;;;;;;;;;;8.50;99.90;;;;;;5084485;28;19931;-68
2022/09/19 01:34:21;;;;;;;;;;;8.60;99.90;;;;;;5096281;28;19946;-68
2022/09/19 01:36:52;;;;;;;;;;;8.70;99.90;;;;;;5092718;28;20398;-68
2022/09/19 01:39:23;;;;;;;;;;;8.60;99.90;;;;;;5096500;28;20331;-68
2022/09/19 01:41:49;;;;;;;;;;;8.70;99.90;;;;;;5098930;28;19960;-68
2022/09/19 01:44:15;;;;;;;;;;;8.80;99.90;;;;;;5092972;28;19924;-68
2022/09/19 01:46:47;;;;;;;;;;;8.80;99.90;;;;;;5079678;28;19970;-68
2022/09/19 01:49:16;;;;;;;;;;;8.70;99.90;;;;;;5092740;28;20011;-68
2022/09/19 01:51:47;;;;;;;;;;;8.70;99.90;;;;;;5091855;28;20006;-69
2022/09/19 01:54:21;;;;;;;;;;;8.70;99.90;;;;;;5092378;28;19977;-68
2022/09/19 01:56:53;;;;;;;;;;;8.80;99.90;;;;;;5090773;28;20401;-68
2022/09/19 01:59:36;;;;;;;;;;;8.80;99.90;;;;;;5079601;28;19974;-68
2022/09/19 02:02:02;;;;;;;;;;;8.80;99.90;;;;;;5079058;28;20177;-68
2022/09/19 02:04:31;;;;;;;;;;;8.80;99.90;;;;;;5087639;28;20417;-68
2022/09/19 02:07:16;;;;;;;;;;;8.70;99.90;;;;;;5086754;28;20053;-68
2022/09/19 02:09:53;;;;;;;;;;;8.80;99.90;;;;;;5081144;28;20317;-68
2022/09/19 02:12:20;;;;;;;;;;;8.60;99.90;;;;;;5086881;28;20382;-68
2022/09/19 02:14:50;;;;;;;;;;;8.50;99.90;;;;;;5086787;28;19920;-69
2022/09/19 02:17:18;;;;;;;;;;;8.50;99.90;;;;;;5096488;28;20389;-68
2022/09/19 02:19:46;;;;;;;;;;;8.50;99.90;;;;;;5098489;28;19912;-68
2022/09/19 02:22:24;;;;;;;;;;;8.50;99.90;;;;;;5079614;28;19931;-68
2022/09/19 02:24:51;;;;;;;;;;;8.50;99.90;;;;;;5090186;28;20276;-68
2022/09/19 02:27:20;;;;;;;;;;;8.50;99.90;;;;;;5067379;28;19961;-68
2022/09/19 02:29:52;;;;;;;;;;;8.60;99.90;;;;;;5077027;28;20443;-68
2022/09/19 02:32:19;;;;;;;;;;;8.60;99.90;;;;;;5078027;28;20028;-68
2022/09/19 02:34:48;;;;;;;;;;;8.60;99.90;;;;;;5089013;28;20325;-68
2022/09/19 02:37:30;;;;;;;;;;;8.50;99.90;;;;;;5089902;28;19927;-68
2022/09/19 02:39:58;;;;;;;;;;;8.50;99.90;;;;;;5096844;28;20470;-69
2022/09/19 02:42:35;;;;;;;;;;;8.50;99.90;;;;;;5097116;28;19950;-68
2022/09/19 02:45:07;;;;;;;;;;;8.60;99.90;;;;;;5086302;28;19923;-68
2022/09/19 02:47:39;;;;;;;;;;;8.60;99.90;;;;;;5096714;28;19975;-69
2022/09/19 02:50:08;;;;;;;;;;;8.70;99.90;;;;;;5098736;28;20483;-68
2022/09/19 02:52:33;;;;;;;;;;;8.70;99.90;;;;;;5097938;28;19985;-68
2022/09/19 02:55:09;;;;;;;;;;;8.80;99.90;;;;;;5095072;28;19916;-68
2022/09/19 02:57:36;;;;;;;;;;;8.80;99.90;;;;;;5084577;28;19941;-68
2022/09/19 03:00:03;;;;;;;;;;;8.90;99.90;;;;;;5097140;28;19912;-68
2022/09/19 03:02:30;;;;;;;;;;;9.00;99.90;;;;;;5081419;28;19920;-69
2022/09/19 03:05:17;;;;;;;;;;;9.00;99.90;;;;;;5079911;28;20394;-68
2022/09/19 03:07:45;;;;;;;;;;;9.10;99.90;;;;;;5076140;28;19915;-68
2022/09/19 03:10:16;;;;;;;;;;;9.20;99.90;;;;;;5080528;28;19916;-68
2022/09/19 03:12:49;;;;;;;;;;;9.20;99.90;;;;;;5083362;28;20077;-68
2022/09/19 03:15:16;;;;;;;;;;;9.30;99.90;;;;;;5086364;28;19916;-68
2022/09/19 03:17:43;;;;;;;;;;;9.30;99.90;;;;;;5086940;28;19968;-68
2022/09/19 03:20:11;;;;;;;;;;;9.40;99.90;;;;;;5094640;28;19916;-68
2022/09/19 03:22:40;;;;;;;;;;;9.40;99.90;;;;;;5098755;28;19984;-68
2022/09/19 03:25:09;;;;;;;;;;;9.50;99.90;;;;;;5093854;28;19920;-69
2022/09/19 03:27:36;;;;;;;;;;;9.50;99.90;;;;;;5084171;28;19927;-68
2022/09/19 03:30:07;;;;;;;;;;;9.60;99.90;;;;;;5095126;28;20359;-68
2022/09/19 03:32:34;;;;;;;;;;;9.60;99.90;;;;;;5096775;28;19997;-68
2022/09/19 03:34:59;;;;;;;;;;;9.60;99.90;;;;;;5076354;28;20011;-68
2022/09/19 03:37:25;;;;;;;;;;;9.60;99.90;;;;;;5084021;28;20316;-68
2022/09/19 03:39:51;;;;;;;;;;;9.70;99.90;;;;;;5098992;28;20060;-69
2022/09/19 03:42:19;;;;;;;;;;;9.70;99.90;;;;;;5101187;28;19927;-68
2022/09/19 03:44:45;;;;;;;;;;;9.70;99.90;;;;;;5083312;28;19916;-68
2022/09/19 03:47:10;;;;;;;;;;;9.70;99.90;;;;;;5088555;28;19915;-69
2022/09/19 03:49:36;;;;;;;;;;;9.70;99.90;;;;;;5101035;28;19911;-68
2022/09/19 03:52:01;;;;;;;;;;;9.80;99.90;;;;;;5096333;28;20000;-69
2022/09/19 03:54:27;;;;;;;;;;;9.80;99.90;;;;;;5092499;28;19923;-68
2022/09/19 03:56:53;;;;;;;;;;;9.80;99.90;;;;;;5090018;28;19941;-68
2022/09/19 03:59:19;;;;;;;;;;;9.80;99.90;;;;;;5099516;28;20014;-68
2022/09/19 04:01:45;;;;;;;;;;;9.90;99.90;;;;;;5084622;28;19952;-68
2022/09/19 04:04:11;;;;;;;;;;;9.90;99.90;;;;;;5081416;28;19916;-68
2022/09/19 04:06:37;;;;;;;;;;;9.90;99.90;;;;;;5089726;28;19958;-68
2022/09/19 04:09:02;;;;;;;;;;;10.00;99.90;;;;;;5081124;28;19959;-68
2022/09/19 04:11:29;;;;;;;;;;;10.00;99.90;;;;;;5088493;28;19959;-68
2022/09/19 04:13:55;;;;;;;;;;;10.00;99.90;;;;;;5098568;28;20549;-68
2022/09/19 04:16:24;;;;;;;;;;;10.00;99.90;;;;;;5085413;28;19985;-68
2022/09/19 04:18:50;;;;;;;;;;;10.00;99.90;;;;;;5082147;28;20013;-68
2022/09/19 04:21:18;;;;;;;;;;;10.00;99.90;;;;;;5099816;28;19919;-68
2022/09/19 04:23:44;;;;;;;;;;;10.00;99.90;;;;;;5093772;28;19977;-68
2022/09/19 04:26:10;;;;;;;;;;;10.00;99.90;;;;;;5087483;28;19924;-68
2022/09/19 04:28:38;;;;;;;;;;;10.00;99.90;;;;;;5081824;28;19952;-68
2022/09/19 04:31:04;;;;;;;;;;;10.00;99.90;;;;;;5089216;28;19936;-68
2022/09/19 04:33:29;;;;;;;;;;;10.00;99.90;;;;;;5087443;28;19916;-68
2022/09/19 04:36:00;;;;;;;;;;;10.00;99.90;;;;;;5085975;28;20244;-68
2022/09/19 04:38:28;;;;;;;;;;;10.00;99.90;;;;;;5091693;28;19920;-68
2022/09/19 04:40:56;;;;;;;;;;;10.00;99.90;;;;;;5092389;28;19960;-68
2022/09/19 04:43:24;;;;;;;;;;;10.00;99.90;;;;;;5091776;28;20349;-68
2022/09/19 04:45:50;;;;;;;;;;;10.00;99.90;;;;;;5099238;28;19932;-67
2022/09/19 04:48:16;;;;;;;;;;;9.90;99.90;;;;;;5088507;28;19920;-68
2022/09/19 04:50:43;;;;;;;;;;;9.90;99.90;;;;;;5090441;28;19928;-68
2022/09/19 04:53:13;;;;;;;;;;;9.90;99.90;;;;;;5099341;28;20450;-68
2022/09/19 04:55:39;;;;;;;;;;;9.90;99.90;;;;;;5093490;28;20383;-68
2022/09/19 04:58:04;;;;;;;;;;;9.90;99.90;;;;;;5097555;28;19919;-68
2022/09/19 05:00:39;;;;;;;;;;;9.90;99.90;;;;;;5092459;28;19939;-68
2022/09/19 05:03:07;;;;;;;;;;;9.90;99.90;;;;;;5084232;28;20242;-68
2022/09/19 05:05:33;;;;;;;;;;;9.90;99.90;;;;;;5088883;28;19916;-68
2022/09/19 05:07:59;;;;;;;;;;;9.90;99.90;;;;;;5082465;28;20357;-68
2022/09/19 05:10:25;;;;;;;;;;;9.90;99.90;;;;;;5078840;28;19927;-68
2022/09/19 05:12:51;;;;;;;;;;;9.90;99.90;;;;;;5099791;28;19935;-68
2022/09/19 05:15:17;;;;;;;;;;;9.90;99.90;;;;;;5095403;28;20370;-68
2022/09/19 05:17:42;;;;;;;;;;;9.90;99.90;;;;;;5090993;28;19915;-68
2022/09/19 05:20:08;;;;;;;;;;;9.90;99.90;;;;;;5083929;28;19931;-68
2022/09/19 05:22:33;;;;;;;;;;;9.90;99.90;;;;;;5087616;28;19966;-68
2022/09/19 05:25:03;;;;;;;;;;;9.90;99.90;;;;;;5079228;28;19920;-69
2022/09/19 05:27:31;;;;;;;;;;;9.90;99.90;;;;;;5093998;28;19916;-68
2022/09/19 05:29:58;;;;;;;;;;;9.90;99.90;;;;;;5096225;28;19958;-67
2022/09/19 05:32:24;;;;;;;;;;;10.00;99.90;;;;;;5090632;28;19923;-67
2022/09/19 05:34:49;;;;;;;;;;;10.00;99.90;;;;;;5091324;28;19915;-68
2022/09/19 05:37:15;;;;;;;;;;;9.90;99.90;;;;;;5097254;28;19916;-68
2022/09/19 05:39:40;;;;;;;;;;;9.90;99.90;;;;;;5086267;28;19916;-67
2022/09/19 05:42:06;;;;;;;;;;;9.90;99.90;;;;;;5077065;28;20014;-68
2022/09/19 05:44:31;;;;;;;;;;;9.90;99.90;;;;;;5086257;28;20363;-68
2022/09/19 05:46:57;;;;;;;;;;;9.90;99.90;;;;;;5089167;28;20279;-68
2022/09/19 05:49:23;;;;;;;;;;;9.90;99.90;;;;;;5090753;28;19920;-67
2022/09/19 05:51:48;;;;;;;;;;;9.90;99.90;;;;;;5087789;28;19924;-68
2022/09/19 05:54:14;;;;;;;;;;;9.90;99.90;;;;;;5083384;28;19966;-68
2022/09/19 05:56:40;;;;;;;;;;;9.90;99.90;;;;;;5091317;28;20439;-68
2022/09/19 05:59:05;;;;;;;;;;;9.90;99.90;;;;;;5076850;28;20343;-68
2022/09/19 06:01:31;;;;;;;;;;;10.00;99.90;;;;;;5076278;28;20385;-68
2022/09/19 06:03:57;;;;;;;;;;;10.00;99.90;;;;;;5084774;28;19920;-68
2022/09/19 06:06:22;;;;;;;;;;;10.10;99.90;;;;;;5084324;28;20026;-68
2022/09/19 06:08:55;;;;;;;;;;;10.10;99.90;;;;;;5077765;28;20385;-68
2022/09/19 06:11:21;;;;;;;;;;;10.10;99.90;;;;;;5079304;28;20007;-68
2022/09/19 06:16:32;;;;;;;;;;;10.20;99.90;;;;;;5089773;28;19927;-68
2022/09/19 06:18:57;;;;;;;;;;;10.30;99.90;;;;;;5089902;28;20273;-68
2022/09/19 06:21:23;;;;;;;;;;;10.40;99.90;;;;;;5079259;28;19920;-68
2022/09/19 06:23:49;;;;;;;;;;;10.50;99.90;;;;;;5080432;28;19969;-68
2022/09/19 06:26:15;;;;;;;;;;;10.60;99.90;;;;;;5081706;28;19999;-68
2022/09/19 06:28:40;;;;;;;;;;;10.60;99.90;;;;;;5066314;28;20023;-67
2022/09/19 06:31:07;;;;;;;;;;;10.70;99.90;;;;;;5071132;28;19928;-68
2022/09/19 06:33:32;;;;;;;;;;;10.80;99.90;;;;;;5070009;28;19922;-68
2022/09/19 06:35:59;;;;;;;;;;;10.90;99.90;;;;;;5055302;28;19915;-68
2022/09/19 06:38:25;;;;;;;;;;;11.00;99.90;;;;;;5081882;28;19958;-68
2022/09/19 06:40:51;;;;;;;;;;;11.00;99.90;;;;;;5076286;28;19945;-68
2022/09/19 06:43:16;;;;;;;;;;;11.10;99.90;;;;;;5074520;28;19943;-67
2022/09/19 06:45:42;;;;;;;;;;;11.10;99.90;;;;;;5076535;28;20397;-68
2022/09/19 06:48:08;;;;;;;;;;;11.10;99.90;;;;;;5073737;28;19926;-68
2022/09/19 06:50:34;;;;;;;;;;;11.20;99.90;;;;;;5086795;28;19916;-69
2022/09/19 06:53:00;;;;;;;;;;;11.20;99.90;;;;;;5088975;28;20010;-68
2022/09/19 06:55:27;;;;;;;;;;;11.30;99.90;;;;;;5081209;28;20015;-68
2022/09/19 06:57:56;;;;;;;;;;;11.30;99.90;;;;;;5086652;28;20005;-68
2022/09/19 07:00:24;;;;;;;;;;;11.30;99.90;;;;;;5082888;28;20311;-68
2022/09/19 07:02:58;;;;;;;;;;;11.40;99.90;;;;;;5085371;28;19916;-68
2022/09/19 07:05:24;;;;;;;;;;;11.50;99.90;;;;;;5086469;28;20306;-68
2022/09/19 07:07:51;;;;;;;;;;;11.50;99.90;;;;;;5084641;28;19958;-68
2022/09/19 07:10:17;;;;;;;;;;;11.70;99.90;;;;;;5068209;28;19951;-68
2022/09/19 07:12:42;;;;;;;;;;;11.70;99.90;;;;;;5088043;28;20709;-68
2022/09/19 07:15:08;;;;;;;;;;;11.80;99.90;;;;;;5086473;28;19958;-68
2022/09/19 07:17:33;;;;;;;;;;;11.90;99.90;;;;;;5085378;28;19955;-68
2022/09/19 07:20:00;;;;;;;;;;;12.00;99.90;;;;;;5080827;28;20018;-68
2022/09/19 07:22:26;;;;;;;;;;;12.10;99.90;;;;;;5086658;28;20022;-68
2022/09/19 07:24:51;;;;;;;;;;;12.20;99.90;;;;;;5089307;28;19916;-68
2022/09/19 07:27:17;;;;;;;;;;;12.40;99.90;;;;;;5084615;28;19915;-68
2022/09/19 07:29:42;;;;;;;;;;;12.50;99.90;;;;;;5084230;28;20484;-68
2022/09/19 07:32:08;;;;;;;;;;;12.80;99.90;;;;;;5079477;28;20269;-69
2022/09/19 07:34:34;;;;;;;;;;;12.90;99.90;;;;;;5086557;28;19920;-68
2022/09/19 07:37:00;;;;;;;;;;;13.10;99.90;;;;;;5082866;28;19920;-69
2022/09/19 07:39:25;;;;;;;;;;;13.20;99.90;;;;;;5082220;28;20001;-68
2022/09/19 07:41:51;;;;;;;;;;;13.30;99.90;;;;;;5057012;28;20567;-68
2022/09/19 07:44:16;;;;;;;;;;;13.60;99.90;;;;;;5082080;28;19916;-68
2022/09/19 07:47:26;;;;;;;;;;;13.80;99.90;;;;;;5074415;28;19920;-68
2022/09/19 07:49:27;;;;;;;;;;;14.00;99.90;;;;;;5073415;28;20833;-69
2022/09/19 07:51:54;;;;;;;;;;;14.30;99.90;;;;;;5075482;28;19928;-69
2022/09/19 07:54:19;;;;;;;;;;;14.40;99.90;;;;;;5066189;28;20318;-68
2022/09/19 07:56:47;;;;;;;;;;;14.50;99.90;;;;;;5068468;28;20468;-69
2022/09/19 07:59:12;;;;;;;;;;;14.50;99.90;;;;;;5053791;28;20000;-68
2022/09/19 08:01:37;;;;;;;;;;;14.70;99.90;;;;;;5072568;28;20443;-68
2022/09/19 08:04:03;;;;;;;;;;;14.90;99.90;;;;;;5076056;28;19919;-68
2022/09/19 08:06:29;;;;;;;;;;;15.00;99.90;;;;;;5072487;28;20367;-69
2022/09/19 08:08:54;;;;;;;;;;;14.90;99.90;;;;;;5073846;28;19915;-68
2022/09/19 08:11:21;;;;;;;;;;;14.90;99.90;;;;;;5073462;28;20069;-69
2022/09/19 08:13:47;;;;;;;;;;;14.80;99.90;;;;;;5072890;28;20376;-68
2022/09/19 08:16:12;;;;;;;;;;;14.60;99.90;;;;;;5079306;28;19923;-68
2022/09/19 08:18:40;;;;;;;;;;;14.60;99.90;;;;;;5076189;28;20010;-70
2022/09/19 08:21:06;;;;;;;;;;;14.50;99.90;;;;;;5071670;28;20195;-69
2022/09/19 08:23:32;;;;;;;;;;;14.60;99.90;;;;;;5073717;28;19916;-68
2022/09/19 08:26:01;;;;;;;;;;;14.60;99.90;;;;;;5074546;28;19923;-68
2022/09/19 08:28:30;;;;;;;;;;;14.90;99.90;;;;;;5072447;28;20467;-69
2022/09/19 08:31:01;;;;;;;;;;;15.20;99.90;;;;;;5073738;28;20469;-69
2022/09/19 08:33:27;;;;;;;;;;;15.60;99.90;;;;;;5071227;28;19924;-69
2022/09/19 08:35:53;;;;;;;;;;;16.00;99.90;;;;;;5083713;28;19922;-69
2022/09/19 08:38:18;;;;;;;;;;;16.30;99.90;;;;;;5084946;28;19916;-71
2022/09/19 08:41:04;;;;;;;;;;;16.60;99.90;;;;;;5085924;28;19949;-70
2022/09/19 08:43:40;;;;;;;;;;;17.00;99.90;;;;;;5085177;28;19920;-70
2022/09/19 08:46:14;;;;;;;;;;;17.30;99.90;;;;;;5089896;28;19920;-71
2022/09/19 08:48:39;;;;;;;;;;;17.30;99.90;;;;;;5083220;28;19920;-71
2022/09/19 08:51:16;;;;;;;;;;;17.50;99.90;;;;;;5085966;28;19916;-71
2022/09/19 08:53:45;;;;;;;;;;;17.50;99.90;;;;;;5085857;28;19920;-70
2022/09/19 08:56:13;;;;;;;;;;;17.50;99.90;;;;;;5088441;28;21560;-70
2022/09/19 08:58:44;;;;;;;;;;;17.70;99.90;;;;;;5086091;28;19920;-68
2022/09/19 09:01:09;;;;;;;;;;;18.10;99.90;;;;;;5085735;28;20104;-69
2022/09/19 09:03:42;;;;;;;;;;;18.40;99.90;;;;;;5081116;28;20337;-71
2022/09/19 09:06:16;;;;;;;;;;;18.60;99.90;;;;;;5085677;28;20011;-72
2022/09/19 09:08:48;;;;;;;;;;;18.70;99.90;;;;;;5082342;28;19922;-70
2022/09/19 09:11:30;;;;;;;;;;;18.70;99.90;;;;;;5071962;28;19923;-70
2022/09/19 09:14:14;;;;;;;;;;;18.60;99.90;;;;;;5086682;28;19989;-70
2022/09/19 09:16:58;;;;;;;;;;;18.70;99.90;;;;;;5085125;28;19915;-70
2022/09/19 09:19:47;;;;;;;;;;;18.60;99.90;;;;;;5085198;28;19916;-70
2022/09/19 09:22:16;;;;;;;;;;;18.50;99.90;;;;;;5059883;28;19942;-70
2022/09/19 09:24:44;;;;;;;;;;;18.60;99.90;;;;;;5086272;28;19920;-70
2022/09/19 09:27:13;;;;;;;;;;;18.70;99.90;;;;;;5087577;28;20403;-70
2022/09/19 09:29:43;;;;;;;;;;;18.90;99.90;;;;;;5083196;28;20398;-70
2022/09/19 09:32:30;;;;;;;;;;;18.80;99.90;;;;;;5085575;28;19979;-70
2022/09/19 09:34:59;;;;;;;;;;;18.80;99.90;;;;;;5085801;28;19983;-70
2022/09/19 09:37:35;;;;;;;;;;;18.90;99.90;;;;;;5091311;28;19916;-70
2022/09/19 09:40:12;;;;;;;;;;;18.70;99.90;;;;;;5084383;28;19955;-70
2022/09/19 09:42:45;;;;;;;;;;;18.30;99.90;;;;;;5083730;28;20358;-70
2022/09/19 09:45:21;;;;;;;;;;;18.20;99.90;;;;;;5083331;28;19970;-70
2022/09/19 09:48:05;;;;;;;;;;;18.30;99.90;;;;;;5080612;28;20355;-70
2022/09/19 09:50:33;;;;;;;;;;;18.20;99.90;;;;;;5086838;28;20269;-70
2022/09/19 09:53:17;;;;;;;;;;;18.10;99.90;;;;;;5086954;28;20062;-70
2022/09/19 09:56:16;;;;;;;;;;;18.00;99.90;;;;;;5087419;28;19922;-70
2022/09/19 09:59:00;;;;;;;;;;;17.90;99.90;;;;;;5090037;28;19942;-70
2022/09/19 10:04:38;;;;;;;;;;;18.10;99.90;;;;;;5085363;28;19927;-70
2022/09/19 10:07:30;;;;;;;;;;;18.10;99.90;;;;;;5085502;28;19926;-69
2022/09/19 10:09:59;;;;;;;;;;;18.10;99.90;;;;;;5079938;28;20321;-69
2022/09/19 10:12:29;;;;;;;;;;;18.20;99.90;;;;;;5086617;28;19924;-69
2022/09/19 10:14:58;;;;;;;;;;;18.30;99.90;;;;;;5085039;28;20010;-69
2022/09/19 10:17:24;;;;;;;;;;;18.40;99.90;;;;;;5090366;28;19922;-69
2022/09/19 10:19:52;;;;;;;;;;;18.40;97.40;;;;;;5086887;28;20045;-69
2022/09/19 10:22:17;;;;;;;;;;;18.30;96.40;;;;;;5086087;28;19916;-70
2022/09/19 10:24:43;;;;;;;;;;;18.50;96.10;;;;;;5087776;28;20282;-70
2022/09/19 10:27:10;;;;;;;;;;;18.50;99.90;;;;;;5083816;28;21498;-69
2022/09/19 10:29:35;;;;;;;;;;;18.70;99.90;;;;;;5087052;28;19916;-69
2022/09/19 10:32:07;;;;;;;;;;;18.70;99.90;;;;;;5084736;28;19924;-70
2022/09/19 10:34:35;;;;;;;;;;;18.60;91.90;;;;;;5080127;28;20205;-69
2022/09/19 10:37:02;;;;;;;;;;;18.70;95.90;;;;;;5086457;28;19916;-70
2022/09/19 10:39:29;;;;;;;;;;;18.70;93.10;;;;;;5083982;28;19927;-70
2022/09/19 10:41:54;;;;;;;;;;;18.80;98.20;;;;;;5089014;28;20010;-70
2022/09/19 10:44:22;;;;;;;;;;;18.90;95.30;;;;;;5082781;28;19964;-70
2022/09/19 10:46:50;;;;;;;;;;;19.20;93.30;;;;;;5081904;28;20048;-69
2022/09/19 10:49:19;;;;;;;;;;;19.20;94.70;;;;;;5084351;28;20431;-70
2022/09/19 10:51:46;;;;;;;;;;;19.20;95.30;;;;;;5079835;28;19924;-70
2022/09/19 10:54:21;;;;;;;;;;;19.50;93.30;;;;;;5085477;28;20156;-70
2022/09/19 10:56:47;;;;;;;;;;;19.70;94.10;;;;;;5084033;28;19923;-70
2022/09/19 10:59:13;;;;;;;;;;;19.90;96.90;;;;;;5084786;28;20350;-70
2022/09/19 11:01:39;;;;;;;;;;;19.80;91.80;;;;;;5080782;28;19916;-70
2022/09/19 11:04:05;;;;;;;;;;;19.70;96.50;;;;;;5086328;28;20444;-70
2022/09/19 11:06:31;;;;;;;;;;;19.60;92.60;;;;;;5082048;28;19924;-70
2022/09/19 11:08:57;;;;;;;;;;;19.40;93.60;;;;;;5084584;28;19977;-70
2022/09/19 11:11:40;;;;;;;;;;;19.40;92.50;;;;;;5084517;28;19919;-70
2022/09/19 11:14:11;;;;;;;;;;;19.40;96.40;;;;;;5076241;28;20533;-70
2022/09/19 11:17:01;;;;;;;;;;;19.70;95.60;;;;;;5083511;28;20304;-70
2022/09/19 11:19:35;;;;;;;;;;;20.60;93.90;;;;;;5084599;28;19939;-70
2022/09/19 11:22:01;;;;;;;;;;;22.00;90.00;;;;;;5084804;28;20033;-70
2022/09/19 11:24:26;;;;;;;;;;;22.90;91.00;;;;;;5079339;28;20484;-70
2022/09/19 11:26:52;;;;;;;;;;;22.70;86.10;;;;;;5088558;28;19919;-71
2022/09/19 11:29:20;;;;;;;;;;;22.80;85.20;;;;;;5083787;28;19988;-70
2022/09/19 11:31:47;;;;;;;;;;;22.70;80.10;;;;;;4379400;28;10000832;-70
2022/09/19 11:34:24;;;;;;;;;;;22.50;86.50;;;;;;5083488;28;20363;-71
2022/09/19 11:37:00;;;;;;;;;;;22.40;88.10;;;;;;5082518;28;19923;-70
2022/09/19 11:39:32;;;;;;;;;;;22.40;83.00;;;;;;5082455;28;20201;-70
2022/09/19 11:42:08;;;;;;;;;;;22.30;85.10;;;;;;5084014;28;20297;-71
2022/09/19 11:44:52;;;;;;;;;;;22.40;87.60;;;;;;5079763;28;19924;-70
2022/09/19 11:47:45;;;;;;;;;;;22.50;79.60;;;;;;5082633;28;19927;-69
2022/09/19 11:50:40;;;;;;;;;;;22.40;78.30;;;;;;5081159;28;20584;-70
2022/09/19 11:53:29;;;;;;;;;;;22.20;86.30;;;;;;5071901;28;20022;-70
2022/09/19 11:55:55;;;;;;;;;;;22.30;80.70;;;;;;5082073;28;19969;-71
2022/09/19 11:58:21;;;;;;;;;;;22.20;81.50;;;;;;5080442;28;19916;-70
2022/09/19 12:01:04;;;;;;;;;;;22.30;82.40;;;;;;5084062;28;19988;-70
2022/09/19 12:03:43;;;;;;;;;;;22.20;85.40;;;;;;5087181;28;20406;-70
2022/09/19 12:06:18;;;;;;;;;;;22.30;88.20;;;;;;5095809;28;20046;-69
2022/09/19 12:08:45;;;;;;;;;;;22.30;90.70;;;;;;5087524;28;20351;-70
2022/09/19 12:11:15;;;;;;;;;;;22.20;81.50;;;;;;5087160;28;19916;-70
2022/09/19 12:13:53;;;;;;;;;;;22.00;85.50;;;;;;5086820;28;20356;-70
2022/09/19 12:16:34;;;;;;;;;;;22.20;83.10;;;;;;5086766;28;19945;-70
2022/09/19 12:19:09;;;;;;;;;;;22.00;78.10;;;;;;5090803;28;20425;-70
2022/09/19 12:21:53;;;;;;;;;;;21.70;82.20;;;;;;5087634;28;19949;-70
2022/09/19 12:24:52;;;;;;;;;;;21.70;86.10;;;;;;5087134;28;20091;-70
2022/09/19 12:27:30;;;;;;;;;;;21.50;90.50;;;;;;5087210;28;19966;-70
2022/09/19 12:30:11;;;;;;;;;;;21.60;91.90;;;;;;5086901;28;20011;-70
2022/09/19 12:32:56;;;;;;;;;;;21.70;82.60;;;;;;5084379;28;20389;-70
2022/09/19 12:35:25;;;;;;;;;;;21.70;85.70;;;;;;5086868;28;19966;-70
2022/09/19 12:37:57;;;;;;;;;;;21.80;82.10;;;;;;5082152;28;20314;-70
2022/09/19 12:40:36;;;;;;;;;;;21.80;83.50;;;;;;5084279;28;19923;-70
2022/09/19 12:43:28;;;;;;;;;;;21.80;88.40;;;;;;5083642;28;19917;-70
2022/09/19 12:46:09;;;;;;;;;;;22.00;90.80;;;;;;5052189;28;19988;-70
2022/09/19 12:48:41;;;;;;;;;;;21.80;84.50;;;;;;5068056;28;19920;-71
2022/09/19 12:51:11;;;;;;;;;;;21.70;88.90;;;;;;5084571;28;19955;-71
2022/09/19 12:53:42;;;;;;;;;;;21.50;84.90;;;;;;5089986;28;20041;-71
2022/09/19 12:56:15;;;;;;;;;;;21.70;85.70;;;;;;5088194;28;19916;-71
2022/09/19 12:59:02;;;;;;;;;;;21.70;80.60;;;;;;5088727;28;20611;-71
2022/09/19 13:01:33;;;;;;;;;;;21.50;86.10;;;;;;5090930;28;19926;-71
2022/09/19 13:04:37;;;;;;;;;;;21.30;91.20;;;;;;5094084;28;20447;-71
2022/09/19 13:07:09;;;;;;;;;;;21.40;88.50;;;;;;5018702;28;19945;-71
2022/09/19 13:09:39;;;;;;;;;;;21.40;90.50;;;;;;5018465;28;19943;-71
2022/09/19 13:12:25;;;;;;;;;;;21.40;90.20;;;;;;5051923;28;19974;-71
2022/09/19 13:14:56;;;;;;;;;;;21.30;90.00;;;;;;5089820;28;19916;-71
2022/09/19 13:25:44;;;;;;;;;;;20.70;90.10;;;;;;5086831;28;20053;-72
2022/09/19 13:28:19;;;;;;;;;;;20.50;86.00;;;;;;5091170;28;19994;-71
2022/09/19 13:30:49;;;;;;;;;;;20.40;89.90;;;;;;5093172;28;19946;-70
2022/09/19 13:33:28;;;;;;;;;;;20.40;90.20;;;;;;5091990;28;19966;-70
2022/09/19 13:35:54;;;;;;;;;;;20.50;94.40;;;;;;5090607;28;20002;-71
2022/09/19 13:38:29;;;;;;;;;;;20.60;90.50;;;;;;5094091;28;20375;-70
2022/09/19 13:41:06;;;;;;;;;;;20.60;94.50;;;;;;5093203;28;20405;-70
2022/09/19 13:43:51;;;;;;;;;;;20.60;90.10;;;;;;5085077;28;19927;-70
2022/09/19 13:46:23;;;;;;;;;;;20.50;86.70;;;;;;5091370;28;20379;-70
2022/09/19 13:48:53;;;;;;;;;;;20.40;90.60;;;;;;5094405;28;19916;-69
2022/09/19 13:51:23;;;;;;;;;;;20.30;85.70;;;;;;5082994;28;19951;-70
2022/09/19 13:54:14;;;;;;;;;;;20.40;89.00;;;;;;5081912;28;19934;-70
2022/09/19 13:56:40;;;;;;;;;;;20.50;91.60;;;;;;5074807;28;19920;-70
2022/09/19 13:59:18;;;;;;;;;;;20.50;90.50;;;;;;5086377;28;19969;-70
2022/09/19 14:01:55;;;;;;;;;;;20.50;90.80;;;;;;5082729;28;19916;-70
2022/09/19 14:07:07;;;;;;;;;;;20.30;86.80;;;;;;5102918;28;19931;-70
2022/09/19 14:09:35;;;;;;;;;;;20.30;87.40;;;;;;5095255;28;20374;-70
2022/09/19 14:12:01;;;;;;;;;;;20.30;90.70;;;;;;5085812;28;19935;-70
2022/09/19 14:14:40;;;;;;;;;;;20.40;87.60;;;;;;5081155;28;20037;-70
2022/09/19 14:17:23;;;;;;;;;;;20.30;90.30;;;;;;5089092;28;20104;-70
2022/09/19 14:19:49;;;;;;;;;;;20.30;87.20;;;;;;5090346;28;20399;-70
2022/09/19 14:22:34;;;;;;;;;;;20.30;86.90;;;;;;5082900;28;19970;-71
2022/09/19 14:25:19;;;;;;;;;;;20.20;89.00;;;;;;5092066;28;19973;-70
2022/09/19 14:27:50;;;;;;;;;;;20.20;83.70;;;;;;5084800;28;19920;-72
2022/09/19 14:30:23;;;;;;;;;;;20.20;89.50;;;;;;5086717;28;19915;-72
2022/09/19 14:32:54;;;;;;;;;;;20.20;85.60;;;;;;5082989;28;19923;-71
2022/09/19 14:35:34;;;;;;;;;;;20.00;84.80;;;;;;5082765;28;19923;-70
2022/09/19 14:38:18;;;;;;;;;;;19.80;90.80;;;;;;5085696;28;19915;-70
2022/09/19 14:40:57;;;;;;;;;;;19.60;93.70;;;;;;5081576;28;20494;-70
2022/09/19 14:43:32;;;;;;;;;;;19.90;91.20;;;;;;5090142;28;19945;-70
2022/09/19 14:46:03;;;;;;;;;;;20.10;85.00;;;;;;5083396;28;20030;-69
2022/09/19 14:48:41;;;;;;;;;;;20.10;82.30;;;;;;5085614;28;19919;-70
2022/09/19 14:51:30;;;;;;;;;;;19.90;86.50;;;;;;5092881;28;20048;-69
2022/09/19 14:54:02;;;;;;;;;;;19.90;90.00;;;;;;5082191;28;19994;-70
2022/09/19 14:56:28;;;;;;;;;;;20.20;90.20;;;;;;5088834;28;19916;-70
2022/09/19 14:58:54;;;;;;;;;;;20.20;91.70;;;;;;5081667;28;19919;-71
2022/09/19 15:01:27;;;;;;;;;;;20.10;86.90;;;;;;5081849;28;20391;-70